STAZIONE AMATORIALE METEOROLOGICA DI VILLALVERNIA
Centro raccolta dati meteo



Villalvernia CAM SSO more information Villalvernia CAM SSO


Villalvernia CAM NNO more information Villalvernia CAM NNO


Visit our other weather sites:

Meteo Live Pozzolo
Formigaro

Meteo Tortona Live


You find our weather info also at:

Weather Underground

AWEKAS

Citizen Weather Observer Program (CWOP)

HAMweather, WeatherForYou, PWS Weather



Nearby METAR Reports

   
LIMJ - Genova/Sestri, Italy
Distance from station: SSE 55 km
Updated: 18-06-2018 22:50
Clear  
Clear  
   Wind: North 7.4 km/h
Wind: North 7.4 km/h
Temperature: 25°C
Dew Point: 19°C
Humidity: 69%
Barometer: 1016 hPa
Visibility: More than 10 km
Cloud details: Clear
LIMJ 182050Z 01004KT 340V060 CAVOK 25/19 Q1016
LIMC - Milano/Malpensa, Italy
Distance from station: N 87 km
Updated: 18-06-2018 22:50
Clear  
Clear  
   Wind: varies 3.7 km/h
Wind: varies 3.7 km/h
Temperature: 23°C
Dew Point: 16°C
Humidity: 65%
Barometer: 1018 hPa
Visibility: More than 10 km
Cloud details: Clear
LIMC 182050Z VRB02KT CAVOK 23/16 Q1018 NOSIG
LIML - Milano/Linate, Italy
Distance from station: NE 91 km
Updated: 18-06-2018 22:50
Clear  
Clear  
   Wind: South 5.6 km/h
Wind: South 5.6 km/h
Temperature: 25°C
Dew Point: 16°C
Humidity: 57%
Barometer: 1017 hPa
Visibility: More than 10 km
Cloud details: Clear
LIML 182050Z 17003KT 130V190 CAVOK 25/16 Q1017 NOSIG
LIMV - Giovi Pass, Italy
Distance from station: SE 46 km
Updated: 12-06-2018 19:55
NOT Current
Mostly Cloudy  
Mostly Cloudy  
   Wind: varies Calm
Wind: varies Calm
Temperature: 18°C
Dew Point: 18°C
Humidity: 100%
Barometer: 1008 hPa
Clouds: Mostly Cloudy
Visibility: 7 km
Cloud details: Mostly Cloudy 182.9 m
LIMV 121755Z /////KT 7000 BKN006 18/18 Q1008 RMK BKN MON GEN INC ABB SLW VAL FOSCHIA VIS MIN 4000S
LIME - Bergamo/Orio Ser, Italy
Distance from station: NE 129 km
Updated: 18-06-2018 22:50
Clear  
Clear  
   Wind: NNE 9.3 km/h
Wind: NNE 9.3 km/h
Temperature: 22°C
Dew Point: 17°C
Humidity: 73%
Barometer: 1018 hPa
Visibility: More than 10 km
Cloud details: Clear
LIME 182050Z 02005KT CAVOK 22/17 Q1018 NOSIG
LIRF - Rome/Fiumicino, Italy
Distance from station: ESE 7 km
Updated: 18-06-2018 22:50
Clear  
Clear  
   Wind: North 5.6 km/h
Wind: North 5.6 km/h
Temperature: 22°C
Dew Point: 18°C
Humidity: 78%
Barometer: 1014 hPa
Visibility: More than 10 km
Cloud details: Clear
LIRF 182050Z 36003KT CAVOK 22/18 Q1014 NOSIG
LIRA - Ciampino(It-Afb/, Italy
Distance from station: E 37 km
Updated: 18-06-2018 22:50
Clear  
Clear  
   Wind: NNE 11.1 km/h
Wind: NNE 11.1 km/h
Temperature: 22°C
Dew Point: 17°C
Humidity: 73%
Barometer: 1014 hPa
Visibility: More than 10 km
Cloud details: Clear
LIRA 182050Z 03006KT CAVOK 22/17 Q1014
  

Script developed by  Saratoga-weather.org Adapted for the template by  Weerstation Leuven